Nearby METAR Reports

 

EGDR - Culdrose (navy), United Kingdom
Distance from station: S 10mi, 17km
Updated: 15/08/2022 22:50
Mostly cloudy
Mostly cloudy
 Wind from WSW
Wind: WSW 5 mph , 7 km/h
Temperature: 18°C
Dew Point: 15°C
Humidity: 83%
Barometer: 1005 hPa
Clouds: Mostly cloudy
Visibility: 6 miles , 10 km
Cloud details: Few Clouds 366 m
Partly cloudy 671 m
Mostly cloudy 3658 m
2022/08/15 21:50 EGDR 152150Z 25004KT 9999 FEW012 SCT022 BKN120 18/15 Q1005 TEMPO 3000 TSRA TSGR SCT006 BKN030CB RMK WHT TEMPO YLO1
EGHQ - Newquay, United Kingdom
Distance from station: NE 17mi, 27km
Updated: 15/08/2022 22:50
Partly cloudy
Partly cloudy
 Wind from varies
Wind: varies 2 mph , 4 km/h
Temperature: 18°C
Dew Point: 16°C
Humidity: 88%
Barometer: 1006 hPa
Clouds: Partly cloudy
Visibility: 6 miles , 10 km
Cloud details: Partly cloudy 488 m
2022/08/15 21:50 EGHQ 152150Z AUTO VRB02KT 9999 SCT016/// 18/16 Q1006
 
EGHC - Lands End, United Kingdom
Distance from station: WSW 22mi, 35km
Updated: 15/08/2022 17:50
NOT Current
Few Clouds
Few Clouds
 Wind from W
Wind: W 5 mph , 7 km/h
Temperature: 19°C
Dew Point: 17°C
Humidity: 88%
Barometer: 1004 hPa
Clouds: Few Clouds
Visibility: 6 miles , 10 km
Cloud details: Few Clouds 610 m
2022/08/15 16:50 EGHC 151650Z 27004KT 230V300 9999 FEW020 19/17 Q1004